createdAt,value
2022-08-04T00:02:39.033Z,21.52
2022-08-04T00:05:07.024Z,21.45
2022-08-04T00:07:53.522Z,21.42
2022-08-04T00:10:22.654Z,21.36
2022-08-04T00:12:52.224Z,21.33
2022-08-04T00:15:20.210Z,21.29
2022-08-04T00:17:53.359Z,21.27
2022-08-04T00:20:20.915Z,21.21
2022-08-04T00:22:49.016Z,21.18
2022-08-04T00:25:16.882Z,21.15
2022-08-04T00:27:44.079Z,21.10
2022-08-04T00:30:11.266Z,21.08
2022-08-04T00:32:41.850Z,21.02
2022-08-04T00:35:15.272Z,20.98
2022-08-04T00:37:46.051Z,20.91
2022-08-04T00:40:34.367Z,20.87
2022-08-04T00:43:19.641Z,20.85
2022-08-04T00:46:21.600Z,20.81
2022-08-04T00:49:15.501Z,20.76
2022-08-04T00:52:33.306Z,20.73
2022-08-04T00:54:54.037Z,20.68
2022-08-04T00:57:34.441Z,20.66
2022-08-04T01:00:11.998Z,20.61
2022-08-04T01:03:08.829Z,20.57
2022-08-04T01:05:54.225Z,20.53
2022-08-04T01:08:36.257Z,20.49
2022-08-04T01:11:31.588Z,20.46
2022-08-04T01:14:04.058Z,20.43
2022-08-04T01:16:32.163Z,20.40
2022-08-04T01:19:34.647Z,20.37
2022-08-04T01:22:29.589Z,20.32
2022-08-04T01:24:56.209Z,20.27
2022-08-04T01:27:48.525Z,20.24
2022-08-04T01:30:16.096Z,20.21
2022-08-04T01:32:53.342Z,20.17
2022-08-04T01:35:44.865Z,20.14
2022-08-04T01:38:25.547Z,20.11
2022-08-04T01:40:54.242Z,20.07
2022-08-04T01:43:21.587Z,20.03
2022-08-04T01:46:00.938Z,20.01
2022-08-04T01:48:29.390Z,19.97
2022-08-04T01:51:04.451Z,19.92
2022-08-04T01:53:35.788Z,19.91
2022-08-04T01:56:04.709Z,19.87
2022-08-04T01:58:33.194Z,19.85
2022-08-04T02:01:09.371Z,19.84
2022-08-04T02:04:18.709Z,19.79
2022-08-04T02:06:41.908Z,19.76
2022-08-04T02:09:11.331Z,19.68
2022-08-04T02:11:41.524Z,19.67
2022-08-04T02:14:45.383Z,19.67
2022-08-04T02:17:23.178Z,19.61
2022-08-04T02:20:15.347Z,19.62
2022-08-04T02:22:59.438Z,19.56
2022-08-04T02:25:29.063Z,19.52
2022-08-04T02:28:00.122Z,19.43
2022-08-04T02:30:55.824Z,19.43
2022-08-04T02:33:36.368Z,19.41
2022-08-04T02:36:05.735Z,19.39
2022-08-04T02:39:02.012Z,19.33
2022-08-04T02:41:31.038Z,19.33
2022-08-04T02:44:00.654Z,19.30
2022-08-04T02:46:29.164Z,19.29
2022-08-04T02:48:57.373Z,19.27
2022-08-04T02:51:33.473Z,19.21
2022-08-04T02:54:02.502Z,19.19
2022-08-04T02:56:31.694Z,19.17
2022-08-04T02:59:07.099Z,19.19
2022-08-04T03:01:33.947Z,19.17
2022-08-04T03:04:06.818Z,19.19
2022-08-04T03:07:07.124Z,19.16
2022-08-04T03:09:50.294Z,19.07
2022-08-04T03:12:41.523Z,19.04
2022-08-04T03:15:30.203Z,19.03
2022-08-04T03:18:08.971Z,18.94
2022-08-04T03:20:56.596Z,18.95
2022-08-04T03:23:50.395Z,18.98
2022-08-04T03:26:38.802Z,18.94
2022-08-04T03:29:24.596Z,18.86
2022-08-04T03:32:33.035Z,18.85
2022-08-04T03:35:37.713Z,18.85
2022-08-04T03:38:19.821Z,18.82
2022-08-04T03:41:05.424Z,18.78
2022-08-04T03:43:57.920Z,18.77
2022-08-04T03:46:38.130Z,18.71
2022-08-04T03:49:51.778Z,18.68
2022-08-04T03:52:55.372Z,18.67
2022-08-04T03:55:54.971Z,18.62
2022-08-04T03:59:06.612Z,18.60
2022-08-04T04:02:02.399Z,18.59
2022-08-04T04:04:56.803Z,18.58
2022-08-04T04:08:03.956Z,18.59
2022-08-04T04:10:42.083Z,18.58
2022-08-04T04:13:20.662Z,18.53
2022-08-04T04:16:26.199Z,18.54
2022-08-04T04:18:52.836Z,18.52
2022-08-04T04:21:29.959Z,18.53
2022-08-04T04:24:06.363Z,18.52
2022-08-04T04:26:39.779Z,18.52
2022-08-04T04:29:12.515Z,18.50
2022-08-04T04:32:14.823Z,18.46
2022-08-04T04:34:46.338Z,18.49
2022-08-04T04:37:37.376Z,18.47
2022-08-04T04:40:20.295Z,18.42
2022-08-04T04:43:11.764Z,18.34
2022-08-04T04:45:54.033Z,18.28
2022-08-04T04:49:03.265Z,18.37
2022-08-04T04:52:00.422Z,18.42
2022-08-04T04:54:45.382Z,18.45
2022-08-04T04:57:17.368Z,18.49
2022-08-04T05:00:00.340Z,18.49
2022-08-04T05:03:01.087Z,18.49
2022-08-04T05:06:10.186Z,18.52
2022-08-04T05:08:46.071Z,18.85
2022-08-04T05:11:31.489Z,18.89
2022-08-04T05:14:35.801Z,18.98
2022-08-04T05:17:12.440Z,18.93
2022-08-04T05:19:51.749Z,18.93
2022-08-04T05:22:29.030Z,18.97
2022-08-04T05:25:03.889Z,19.01
2022-08-04T05:27:51.629Z,18.88
2022-08-04T05:30:19.374Z,19.00
2022-08-04T05:32:59.149Z,19.03
2022-08-04T05:35:50.493Z,19.04
2022-08-04T05:38:25.086Z,18.99
2022-08-04T05:40:53.317Z,19.02
2022-08-04T05:43:23.662Z,19.05
2022-08-04T05:45:52.400Z,19.09
2022-08-04T05:48:19.334Z,19.10
2022-08-04T05:50:47.563Z,19.18
2022-08-04T05:53:16.791Z,19.27
2022-08-04T05:55:58.165Z,19.30
2022-08-04T05:58:29.567Z,19.31
2022-08-04T06:00:57.933Z,19.31
2022-08-04T06:03:26.095Z,19.33
2022-08-04T06:05:53.069Z,19.33
2022-08-04T06:08:19.949Z,19.40
2022-08-04T06:10:48.134Z,19.38
2022-08-04T06:13:47.601Z,19.41
2022-08-04T06:16:08.297Z,19.45
2022-08-04T06:20:03.258Z,19.51
2022-08-04T06:21:39.430Z,19.64
2022-08-04T06:24:10.920Z,19.70
2022-08-04T06:26:40.222Z,19.75
2022-08-04T06:29:17.053Z,19.81
2022-08-04T06:32:27.000Z,19.87
2022-08-04T06:34:44.367Z,19.91
2022-08-04T06:37:12.021Z,19.93
2022-08-04T06:39:51.182Z,19.95
2022-08-04T06:42:23.032Z,20.02
2022-08-04T06:44:52.482Z,20.08
2022-08-04T06:47:21.584Z,20.13
2022-08-04T06:51:23.327Z,20.13
2022-08-04T06:52:38.515Z,20.09
2022-08-04T06:55:07.616Z,20.16
2022-08-04T06:57:35.554Z,20.19
2022-08-04T07:00:14.006Z,20.29
2022-08-04T07:02:50.695Z,20.31
2022-08-04T07:05:19.189Z,20.34
2022-08-04T07:07:57.697Z,20.39
2022-08-04T07:10:27.801Z,20.43
2022-08-04T07:12:57.330Z,20.48
2022-08-04T07:15:25.764Z,20.55
2022-08-04T07:17:53.878Z,20.60
2022-08-04T07:20:34.484Z,20.66
2022-08-04T07:23:06.579Z,20.73
2022-08-04T07:25:59.491Z,20.81
2022-08-04T07:28:26.203Z,20.88
2022-08-04T07:30:54.615Z,20.89
2022-08-04T07:33:22.192Z,20.95
2022-08-04T07:36:10.067Z,21.05
2022-08-04T07:38:48.804Z,21.21
2022-08-04T07:41:43.315Z,21.26
2022-08-04T07:44:14.623Z,21.22
2022-08-04T07:46:42.261Z,21.29
2022-08-04T07:49:10.114Z,21.41
2022-08-04T07:51:37.585Z,21.52
2022-08-04T07:54:05.815Z,21.47
2022-08-04T07:56:36.173Z,21.53
2022-08-04T07:59:03.938Z,21.56
2022-08-04T08:01:31.304Z,21.61
2022-08-04T08:06:33.191Z,21.81
2022-08-04T08:09:02.311Z,21.97
2022-08-04T08:12:35.966Z,22.07
2022-08-04T08:14:33.543Z,22.16
2022-08-04T08:17:02.421Z,22.17
2022-08-04T08:19:34.645Z,22.30
2022-08-04T08:22:04.973Z,22.41
2022-08-04T08:24:36.480Z,22.49
2022-08-04T08:27:04.748Z,22.63
2022-08-04T08:29:34.070Z,22.66
2022-08-04T08:32:07.455Z,22.71
2022-08-04T08:34:35.322Z,22.80
2022-08-04T08:37:41.979Z,22.90
2022-08-04T08:40:40.713Z,23.04
2022-08-04T08:44:06.556Z,22.99
2022-08-04T08:46:48.855Z,23.08
2022-08-04T08:50:02.130Z,23.11
2022-08-04T08:53:02.668Z,23.28
2022-08-04T08:55:42.741Z,23.33
2022-08-04T08:58:15.158Z,23.34
2022-08-04T09:01:02.978Z,23.49
2022-08-04T09:03:35.582Z,23.62
2022-08-04T09:06:33.154Z,23.68
2022-08-04T09:09:17.797Z,23.83
2022-08-04T09:11:56.254Z,23.78
2022-08-04T09:14:32.125Z,23.83
2022-08-04T09:17:05.422Z,23.97
2022-08-04T09:19:46.021Z,24.12
2022-08-04T09:22:28.384Z,24.19
2022-08-04T09:25:04.890Z,24.35
2022-08-04T09:28:09.411Z,24.42
2022-08-04T09:30:46.019Z,24.45
2022-08-04T09:33:44.957Z,24.41
2022-08-04T09:36:26.721Z,24.52
2022-08-04T09:39:20.434Z,24.57
2022-08-04T09:42:17.674Z,24.62
2022-08-04T09:45:04.128Z,24.72
2022-08-04T09:47:45.328Z,24.79
2022-08-04T09:50:23.182Z,24.79
2022-08-04T09:52:52.627Z,24.95
2022-08-04T09:55:38.626Z,24.97
2022-08-04T09:58:39.839Z,25.04
2022-08-04T10:01:10.343Z,25.11
2022-08-04T10:03:41.193Z,25.22
2022-08-04T10:06:34.828Z,25.26
2022-08-04T10:09:16.163Z,25.42
2022-08-04T10:11:57.943Z,25.39
2022-08-04T10:14:37.694Z,25.50
2022-08-04T10:17:34.649Z,25.56
2022-08-04T10:20:45.182Z,25.60
2022-08-04T10:23:27.189Z,25.76
2022-08-04T10:26:25.916Z,26.03
2022-08-04T10:29:14.946Z,25.87
2022-08-04T10:32:09.627Z,25.99
2022-08-04T10:35:13.968Z,26.10
2022-08-04T10:38:02.550Z,26.17
2022-08-04T10:40:37.028Z,26.24
2022-08-04T10:43:22.059Z,26.14
2022-08-04T10:46:01.844Z,26.40
2022-08-04T10:48:46.584Z,26.38
2022-08-04T10:51:26.853Z,26.68
2022-08-04T10:54:00.461Z,26.69
2022-08-04T10:56:41.951Z,26.74
2022-08-04T10:59:34.891Z,26.85
2022-08-04T11:02:20.638Z,26.93
2022-08-04T11:04:52.741Z,26.84
2022-08-04T11:07:20.056Z,27.07
2022-08-04T11:09:48.230Z,26.97
2022-08-04T11:12:21.700Z,27.15
2022-08-04T11:15:09.396Z,27.22
2022-08-04T11:17:40.861Z,27.35
2022-08-04T11:20:35.690Z,27.39
2022-08-04T11:23:15.409Z,27.48
2022-08-04T11:26:19.624Z,27.46
2022-08-04T11:29:05.547Z,27.54
2022-08-04T11:31:36.061Z,27.70
2022-08-04T11:34:24.934Z,27.80
2022-08-04T11:36:51.637Z,27.78
2022-08-04T11:39:53.246Z,27.82
2022-08-04T11:42:23.206Z,27.98
2022-08-04T11:45:04.224Z,28.12
2022-08-04T11:47:34.603Z,28.07
2022-08-04T11:50:12.795Z,28.21
2022-08-04T11:52:42.062Z,28.36
2022-08-04T11:55:14.814Z,28.34
2022-08-04T11:57:41.846Z,28.66
2022-08-04T12:00:12.781Z,28.76
2022-08-04T12:03:16.182Z,28.83
2022-08-04T12:06:10.789Z,28.70
2022-08-04T12:08:58.442Z,28.78
2022-08-04T12:11:51.314Z,28.86
2022-08-04T12:14:41.264Z,28.89
2022-08-04T12:17:08.667Z,29.13
2022-08-04T12:20:03.323Z,29.30
2022-08-04T12:22:41.605Z,29.28
2022-08-04T12:25:16.251Z,29.37
2022-08-04T12:31:42.344Z,29.58
2022-08-04T12:34:43.652Z,29.72
2022-08-04T12:40:55.096Z,29.65
2022-08-04T12:43:42.878Z,29.84
2022-08-04T12:46:12.164Z,30.03
2022-08-04T12:48:40.323Z,30.06
2022-08-04T12:54:55.740Z,30.26
2022-08-04T12:57:24.324Z,30.37
2022-08-04T12:59:57.191Z,30.36
2022-08-04T13:02:30.436Z,30.42
2022-08-04T13:05:02.871Z,30.39
2022-08-04T13:07:38.922Z,30.38
2022-08-04T13:10:14.168Z,30.38
2022-08-04T13:12:57.346Z,30.40
2022-08-04T13:15:25.578Z,30.51
2022-08-04T13:18:01.969Z,30.71
2022-08-04T13:20:34.897Z,30.80
2022-08-04T13:23:04.286Z,30.89
2022-08-04T13:26:44.582Z,31.04
2022-08-04T13:28:26.369Z,31.18
2022-08-04T13:30:57.152Z,31.07
2022-08-04T13:33:31.087Z,31.23
2022-08-04T13:35:59.945Z,31.24
2022-08-04T13:38:28.230Z,31.35
2022-08-04T13:41:02.187Z,31.39
2022-08-04T13:44:15.435Z,31.64
2022-08-04T13:46:29.454Z,31.73
2022-08-04T13:49:27.930Z,31.65
2022-08-04T13:52:14.506Z,31.83
2022-08-04T13:54:44.106Z,31.89
2022-08-04T13:57:27.958Z,31.77
2022-08-04T14:00:08.153Z,31.96
2022-08-04T14:02:40.630Z,32.03
2022-08-04T14:05:19.733Z,31.81
2022-08-04T14:08:14.858Z,31.98
2022-08-04T14:10:41.784Z,32.18
2022-08-04T14:13:08.704Z,31.98
2022-08-04T14:16:01.752Z,32.23
2022-08-04T14:18:28.425Z,32.39
2022-08-04T14:21:07.189Z,32.51
2022-08-04T14:24:04.246Z,32.59
2022-08-04T14:26:35.474Z,32.54
2022-08-04T14:29:28.102Z,32.75
2022-08-04T14:32:06.100Z,32.76
2022-08-04T14:34:41.456Z,32.88
2022-08-04T14:37:18.411Z,32.94
2022-08-04T14:40:18.610Z,33.03
2022-08-04T14:42:54.496Z,33.08
2022-08-04T14:45:38.506Z,33.22
2022-08-04T14:48:13.851Z,33.33
2022-08-04T14:50:46.380Z,33.41
2022-08-04T14:53:17.223Z,33.50
2022-08-04T14:55:47.596Z,33.50
2022-08-04T14:58:34.128Z,33.42
2022-08-04T15:01:12.088Z,33.72
2022-08-04T15:03:50.673Z,33.48
2022-08-04T15:06:28.667Z,33.36
2022-08-04T15:08:57.641Z,33.77
2022-08-04T15:11:24.921Z,34.01
2022-08-04T15:13:56.683Z,34.00
2022-08-04T15:16:25.973Z,34.18
2022-08-04T15:18:54.742Z,34.30
2022-08-04T15:21:26.064Z,34.46
2022-08-04T15:23:52.915Z,34.52
2022-08-04T15:26:42.355Z,34.55
2022-08-04T15:29:20.777Z,34.43
2022-08-04T15:32:05.964Z,34.56
2022-08-04T15:34:51.886Z,34.67
2022-08-04T15:37:43.534Z,34.77
2022-08-04T15:40:32.783Z,34.85
2022-08-04T15:43:08.807Z,34.82
2022-08-04T15:46:37.102Z,34.74
2022-08-04T15:48:36.963Z,34.85
2022-08-04T15:51:14.727Z,34.88
2022-08-04T15:54:03.563Z,34.86
2022-08-04T15:56:30.411Z,35.02
2022-08-04T15:58:57.477Z,35.03
2022-08-04T16:01:25.017Z,34.87
2022-08-04T16:03:59.687Z,34.68
2022-08-04T16:06:29.626Z,34.92
2022-08-04T16:09:02.194Z,35.01
2022-08-04T16:11:33.104Z,35.24
2022-08-04T16:14:00.165Z,35.08
2022-08-04T16:16:28.506Z,35.05
2022-08-04T16:18:55.845Z,35.17
2022-08-04T16:21:25.406Z,35.38
2022-08-04T16:24:00.719Z,35.44
2022-08-04T16:26:57.203Z,35.03
2022-08-04T16:29:24.074Z,35.20
2022-08-04T16:32:06.404Z,35.05
2022-08-04T16:34:50.385Z,35.26
2022-08-04T16:37:24.098Z,35.14
2022-08-04T16:40:35.856Z,34.68
2022-08-04T16:43:07.988Z,35.03
2022-08-04T16:45:41.109Z,34.88
2022-08-04T16:48:08.947Z,34.93
2022-08-04T16:50:49.941Z,35.03
2022-08-04T16:53:53.926Z,34.94
2022-08-04T16:56:06.591Z,34.74
2022-08-04T16:58:36.790Z,34.93
2022-08-04T17:01:32.376Z,34.87
2022-08-04T17:04:05.119Z,34.71
2022-08-04T17:06:40.725Z,34.56
2022-08-04T17:09:14.072Z,34.54
2022-08-04T17:11:42.846Z,34.84
2022-08-04T17:14:10.222Z,34.88
2022-08-04T17:16:42.932Z,34.88
2022-08-04T17:19:24.452Z,34.69
2022-08-04T17:22:04.600Z,34.58
2022-08-04T17:24:33.948Z,34.56
2022-08-04T17:27:00.832Z,34.54
2022-08-04T17:29:44.519Z,34.45
2022-08-04T17:32:22.300Z,34.40
2022-08-04T17:34:55.517Z,34.36
2022-08-04T17:37:53.299Z,34.30
2022-08-04T17:40:18.618Z,34.24
2022-08-04T17:43:03.431Z,34.15
2022-08-04T17:46:29.539Z,34.10
2022-08-04T17:49:02.731Z,34.02
2022-08-04T17:52:05.235Z,33.99
2022-08-04T17:54:40.037Z,33.91
2022-08-04T17:57:22.152Z,33.86
2022-08-04T17:59:57.456Z,33.77
2022-08-04T18:02:34.774Z,33.70
2022-08-04T18:05:12.135Z,33.62
2022-08-04T18:08:37.830Z,33.52
2022-08-04T18:10:51.735Z,33.40
2022-08-04T18:13:21.868Z,33.27
2022-08-04T18:15:51.359Z,33.16
2022-08-04T18:18:23.310Z,33.06
2022-08-04T18:20:50.665Z,32.88
2022-08-04T18:23:17.656Z,32.81
2022-08-04T18:25:51.241Z,32.72
2022-08-04T18:28:22.706Z,32.58
2022-08-04T18:30:55.973Z,32.46
2022-08-04T18:33:37.734Z,32.39
2022-08-04T18:36:34.658Z,32.29
2022-08-04T18:38:58.298Z,32.20
2022-08-04T18:41:27.308Z,32.10
2022-08-04T18:43:56.639Z,32.02
2022-08-04T18:46:26.939Z,31.92
2022-08-04T18:48:54.177Z,31.80
2022-08-04T18:51:23.528Z,31.70
2022-08-04T18:53:58.376Z,31.56
2022-08-04T18:56:29.575Z,31.44
2022-08-04T18:58:59.869Z,31.35
2022-08-04T19:01:30.391Z,31.26
2022-08-04T19:04:32.797Z,31.13
2022-08-04T19:08:01.323Z,31.00
2022-08-04T19:09:54.031Z,30.90
2022-08-04T19:12:27.244Z,30.79
2022-08-04T19:15:07.976Z,30.70
2022-08-04T19:17:55.156Z,30.61
2022-08-04T19:20:25.516Z,30.50
2022-08-04T19:24:29.163Z,30.37
2022-08-04T19:26:03.750Z,30.29
2022-08-04T19:28:35.251Z,30.18
2022-08-04T19:31:08.124Z,30.09
2022-08-04T19:33:59.311Z,29.98
2022-08-04T19:36:27.816Z,29.88
2022-08-04T19:38:58.141Z,29.77
2022-08-04T19:41:26.496Z,29.71
2022-08-04T19:43:54.236Z,29.62
2022-08-04T19:46:24.985Z,29.54
2022-08-04T19:51:39.731Z,29.37
2022-08-04T19:54:16.753Z,29.27
2022-08-04T19:56:50.752Z,29.18
2022-08-04T19:59:54.884Z,29.09
2022-08-04T20:02:22.000Z,28.97
2022-08-04T20:04:51.818Z,28.90
2022-08-04T20:07:18.583Z,28.83
2022-08-04T20:09:53.591Z,28.74
2022-08-04T20:12:20.638Z,28.64
2022-08-04T20:14:47.968Z,28.58
2022-08-04T20:17:15.589Z,28.49
2022-08-04T20:19:51.112Z,28.40
2022-08-04T20:22:52.753Z,28.33
2022-08-04T20:25:35.539Z,28.20
2022-08-04T20:28:00.540Z,28.10
2022-08-04T20:30:29.450Z,28.02
2022-08-04T20:32:57.064Z,27.97
2022-08-04T20:35:27.113Z,27.86
2022-08-04T20:38:00.129Z,27.79
2022-08-04T20:40:28.100Z,27.70
2022-08-04T20:42:57.178Z,27.67
2022-08-04T20:45:24.341Z,27.59
2022-08-04T20:48:11.059Z,27.47
2022-08-04T20:50:37.828Z,27.41
2022-08-04T20:53:16.805Z,27.32
2022-08-04T20:55:55.643Z,27.23
2022-08-04T20:58:27.686Z,27.15
2022-08-04T21:00:56.020Z,27.08
2022-08-04T21:03:49.515Z,27.01
2022-08-04T21:06:10.662Z,26.94
2022-08-04T21:08:37.732Z,26.86
2022-08-04T21:11:06.909Z,26.83
2022-08-04T21:13:52.121Z,26.74
2022-08-04T21:16:54.040Z,26.69
2022-08-04T21:19:13.068Z,26.56
2022-08-04T21:21:42.253Z,26.51
2022-08-04T21:24:09.820Z,26.42
2022-08-04T21:26:37.398Z,26.38
2022-08-04T21:29:04.928Z,26.35
2022-08-04T21:31:36.829Z,26.25
2022-08-04T21:34:39.217Z,26.19
2022-08-04T21:37:05.703Z,26.13
2022-08-04T21:39:33.209Z,26.07
2022-08-04T21:42:28.008Z,26.01
2022-08-04T21:44:56.822Z,25.98
2022-08-04T21:47:24.037Z,25.90
2022-08-04T21:49:56.650Z,25.83
2022-08-04T21:52:24.712Z,25.77
2022-08-04T21:57:41.937Z,25.62
2022-08-04T22:00:18.246Z,25.60
2022-08-04T22:02:45.639Z,25.54
2022-08-04T22:05:15.897Z,25.50
2022-08-04T22:07:50.098Z,25.44
2022-08-04T22:10:31.911Z,25.40
2022-08-04T22:12:58.952Z,25.33
2022-08-04T22:16:03.608Z,25.29
2022-08-04T22:18:12.520Z,25.22
2022-08-04T22:20:39.285Z,25.18
2022-08-04T22:23:16.612Z,25.13
2022-08-04T22:25:44.972Z,25.08
2022-08-04T22:28:22.229Z,25.04
2022-08-04T22:30:53.963Z,24.98
2022-08-04T22:33:22.723Z,24.93
2022-08-04T22:35:50.158Z,24.89
2022-08-04T22:38:25.318Z,24.83
2022-08-04T22:41:09.848Z,24.75
2022-08-04T22:43:38.022Z,24.68
2022-08-04T22:46:12.113Z,24.62
2022-08-04T22:48:43.264Z,24.59
2022-08-04T22:51:10.593Z,24.56
2022-08-04T22:53:39.962Z,24.49
2022-08-04T22:56:10.607Z,24.47
2022-08-04T22:58:45.265Z,24.44
2022-08-04T23:01:18.226Z,24.39
2022-08-04T23:03:55.239Z,24.31
2022-08-04T23:06:25.132Z,24.30
2022-08-04T23:08:52.383Z,24.26
2022-08-04T23:11:19.520Z,24.21
2022-08-04T23:13:47.337Z,24.17
2022-08-04T23:16:15.981Z,24.12
2022-08-04T23:18:48.380Z,24.05
2022-08-04T23:21:16.952Z,24.04
2022-08-04T23:23:45.394Z,23.99
2022-08-04T23:26:27.799Z,23.96
2022-08-04T23:28:56.311Z,23.89
2022-08-04T23:31:23.955Z,23.86
2022-08-04T23:37:38.578Z,23.74
2022-08-04T23:40:32.930Z,23.70
2022-08-04T23:43:02.290Z,23.67
2022-08-04T23:46:06.960Z,23.62
2022-08-04T23:48:38.848Z,23.57
2022-08-04T23:51:14.568Z,23.53
2022-08-04T23:54:02.508Z,23.49
2022-08-04T23:56:31.803Z,23.46
2022-08-04T23:59:00.061Z,23.43
